sensor_id;sensor_type;location;lat;lon;timestamp;P1;durP1;ratioP1;P2;durP2;ratioP2
47365;SDS011;33105;47.964;7.982;2023-08-31T07:34:51;13.03;;;4.20;;
47365;SDS011;33105;47.964;7.982;2023-08-31T07:37:56;6.35;;;3.22;;
47365;SDS011;33105;47.964;7.982;2023-08-31T07:41:38;9.60;;;3.13;;
47365;SDS011;33105;47.964;7.982;2023-08-31T07:45:17;5.85;;;3.13;;
47365;SDS011;33105;47.964;7.982;2023-08-31T07:49:13;8.52;;;3.22;;
47365;SDS011;33105;47.964;7.982;2023-08-31T07:57:20;8.98;;;3.03;;
47365;SDS011;33105;47.964;7.982;2023-08-31T08:00:21;8.93;;;2.95;;
47365;SDS011;33105;47.964;7.982;2023-08-31T08:04:01;6.60;;;2.53;;
47365;SDS011;33105;47.964;7.982;2023-08-31T08:11:13;11.52;;;2.65;;
47365;SDS011;33105;47.964;7.982;2023-08-31T08:23:40;9.73;;;2.78;;
47365;SDS011;33105;47.964;7.982;2023-08-31T08:27:34;13.25;;;2.78;;
47365;SDS011;33105;47.964;7.982;2023-08-31T08:30:42;6.78;;;2.60;;
47365;SDS011;33105;47.964;7.982;2023-08-31T08:43:01;8.88;;;2.55;;
47365;SDS011;33105;47.964;7.982;2023-08-31T08:46:18;7.20;;;2.88;;
47365;SDS011;33105;47.964;7.982;2023-08-31T08:54:35;5.97;;;2.20;;
47365;SDS011;33105;47.964;7.982;2023-08-31T08:58:36;6.22;;;2.20;;
47365;SDS011;33105;47.964;7.982;2023-08-31T09:02:36;5.25;;;1.92;;
47365;SDS011;33105;47.964;7.982;2023-08-31T09:06:27;7.57;;;2.10;;
47365;SDS011;33105;47.964;7.982;2023-08-31T09:13:20;7.30;;;2.20;;
47365;SDS011;33105;47.964;7.982;2023-08-31T09:17:23;5.28;;;1.92;;
47365;SDS011;33105;47.964;7.982;2023-08-31T09:20:53;8.98;;;1.85;;
47365;SDS011;33105;47.964;7.982;2023-08-31T09:28:43;12.63;;;2.42;;
47365;SDS011;33105;47.964;7.982;2023-08-31T09:32:37;9.02;;;2.28;;
47365;SDS011;33105;47.964;7.982;2023-08-31T09:36:15;5.53;;;2.15;;
47365;SDS011;33105;47.964;7.982;2023-08-31T09:40:31;6.90;;;1.75;;
47365;SDS011;33105;47.964;7.982;2023-08-31T09:55:01;6.60;;;1.67;;
47365;SDS011;33105;47.964;7.982;2023-08-31T10:08:33;12.82;;;2.28;;
47365;SDS011;33105;47.964;7.982;2023-08-31T10:13:13;6.97;;;2.00;;
47365;SDS011;33105;47.964;7.982;2023-08-31T10:36:45;8.40;;;2.15;;
47365;SDS011;33105;47.964;7.982;2023-08-31T10:45:48;10.75;;;2.08;;
47365;SDS011;33105;47.964;7.982;2023-08-31T11:03:15;9.48;;;2.25;;
47365;SDS011;33105;47.964;7.982;2023-08-31T11:07:40;6.57;;;1.80;;
47365;SDS011;33105;47.964;7.982;2023-08-31T11:11:46;10.82;;;2.40;;
47365;SDS011;33105;47.964;7.982;2023-08-31T11:15:49;8.23;;;1.90;;
47365;SDS011;33105;47.964;7.982;2023-08-31T11:23:47;5.13;;;1.85;;
47365;SDS011;33105;47.964;7.982;2023-08-31T11:27:58;5.28;;;1.88;;
47365;SDS011;33105;47.964;7.982;2023-08-31T11:32:51;6.40;;;2.00;;
47365;SDS011;33105;47.964;7.982;2023-08-31T11:41:36;6.22;;;1.95;;
47365;SDS011;33105;47.964;7.982;2023-08-31T11:45:47;7.75;;;1.90;;
47365;SDS011;33105;47.964;7.982;2023-08-31T11:52:55;9.00;;;2.05;;
47365;SDS011;33105;47.964;7.982;2023-08-31T11:56:31;10.88;;;2.08;;
47365;SDS011;33105;47.964;7.982;2023-08-31T11:59:54;5.47;;;1.70;;
47365;SDS011;33105;47.964;7.982;2023-08-31T12:04:29;5.97;;;1.80;;
47365;SDS011;33105;47.964;7.982;2023-08-31T12:08:14;6.85;;;1.65;;
47365;SDS011;33105;47.964;7.982;2023-08-31T12:12:41;14.48;;;2.40;;
47365;SDS011;33105;47.964;7.982;2023-08-31T12:15:46;8.02;;;2.00;;
47365;SDS011;33105;47.964;7.982;2023-08-31T12:27:35;5.80;;;1.70;;
47365;SDS011;33105;47.964;7.982;2023-08-31T12:31:33;4.47;;;1.88;;
47365;SDS011;33105;47.964;7.982;2023-08-31T12:35:55;5.13;;;1.88;;
47365;SDS011;33105;47.964;7.982;2023-08-31T12:49:00;7.38;;;1.98;;
47365;SDS011;33105;47.964;7.982;2023-08-31T12:52:28;5.80;;;1.77;;
47365;SDS011;33105;47.964;7.982;2023-08-31T12:56:34;5.68;;;1.52;;
47365;SDS011;33105;47.964;7.982;2023-08-31T13:00:21;6.40;;;1.77;;
47365;SDS011;33105;47.964;7.982;2023-08-31T13:08:46;11.02;;;2.10;;
47365;SDS011;33105;47.964;7.982;2023-08-31T13:11:57;5.97;;;1.80;;
47365;SDS011;33105;47.964;7.982;2023-08-31T13:16:53;5.95;;;1.88;;
47365;SDS011;33105;47.964;7.982;2023-08-31T13:20:28;4.68;;;1.70;;
47365;SDS011;33105;47.964;7.982;2023-08-31T13:23:31;9.13;;;2.20;;
47365;SDS011;33105;47.964;7.982;2023-08-31T13:27:04;5.30;;;1.90;;
47365;SDS011;33105;47.964;7.982;2023-08-31T13:30:15;6.70;;;1.88;;
47365;SDS011;33105;47.964;7.982;2023-08-31T13:33:17;6.50;;;1.90;;
47365;SDS011;33105;47.964;7.982;2023-08-31T13:36:24;4.75;;;2.20;;
47365;SDS011;33105;47.964;7.982;2023-08-31T13:39:41;5.07;;;2.10;;
47365;SDS011;33105;47.964;7.982;2023-08-31T13:42:52;4.25;;;1.65;;
47365;SDS011;33105;47.964;7.982;2023-08-31T13:46:06;5.03;;;1.98;;
47365;SDS011;33105;47.964;7.982;2023-08-31T13:49:19;8.07;;;1.98;;
47365;SDS011;33105;47.964;7.982;2023-08-31T13:52:31;7.45;;;2.33;;
47365;SDS011;33105;47.964;7.982;2023-08-31T13:55:37;7.43;;;2.03;;
47365;SDS011;33105;47.964;7.982;2023-08-31T13:58:41;10.70;;;1.90;;
47365;SDS011;33105;47.964;7.982;2023-08-31T14:01:45;8.43;;;1.80;;
47365;SDS011;33105;47.964;7.982;2023-08-31T14:05:30;5.28;;;2.25;;
47365;SDS011;33105;47.964;7.982;2023-08-31T14:08:57;5.60;;;1.90;;
47365;SDS011;33105;47.964;7.982;2023-08-31T14:12:00;8.27;;;1.95;;
47365;SDS011;33105;47.964;7.982;2023-08-31T14:21:27;5.22;;;1.73;;
47365;SDS011;33105;47.964;7.982;2023-08-31T14:25:16;6.95;;;1.90;;
47365;SDS011;33105;47.964;7.982;2023-08-31T14:28:19;5.63;;;1.83;;
47365;SDS011;33105;47.964;7.982;2023-08-31T14:31:35;6.90;;;2.00;;
47365;SDS011;33105;47.964;7.982;2023-08-31T14:35:24;6.87;;;2.20;;
47365;SDS011;33105;47.964;7.982;2023-08-31T14:38:26;3.78;;;1.73;;
47365;SDS011;33105;47.964;7.982;2023-08-31T14:41:32;7.75;;;1.90;;
47365;SDS011;33105;47.964;7.982;2023-08-31T14:44:37;5.93;;;2.30;;
47365;SDS011;33105;47.964;7.982;2023-08-31T14:47:39;6.53;;;2.17;;
47365;SDS011;33105;47.964;7.982;2023-08-31T14:50:44;6.93;;;1.95;;
47365;SDS011;33105;47.964;7.982;2023-08-31T14:53:46;8.10;;;2.25;;
47365;SDS011;33105;47.964;7.982;2023-08-31T14:56:48;5.25;;;1.92;;
47365;SDS011;33105;47.964;7.982;2023-08-31T14:59:59;8.75;;;2.50;;
47365;SDS011;33105;47.964;7.982;2023-08-31T15:03:01;7.13;;;1.92;;
47365;SDS011;33105;47.964;7.982;2023-08-31T15:06:06;8.40;;;2.15;;
47365;SDS011;33105;47.964;7.982;2023-08-31T15:09:08;7.40;;;2.10;;
47365;SDS011;33105;47.964;7.982;2023-08-31T15:12:12;4.50;;;2.05;;
47365;SDS011;33105;47.964;7.982;2023-08-31T15:15:14;5.95;;;1.73;;
47365;SDS011;33105;47.964;7.982;2023-08-31T15:18:15;5.28;;;2.08;;
47365;SDS011;33105;47.964;7.982;2023-08-31T15:21:27;6.65;;;1.95;;
47365;SDS011;33105;47.964;7.982;2023-08-31T15:24:30;8.75;;;2.00;;
47365;SDS011;33105;47.964;7.982;2023-08-31T15:27:32;7.18;;;2.03;;
47365;SDS011;33105;47.964;7.982;2023-08-31T15:30:34;7.38;;;2.55;;
47365;SDS011;33105;47.964;7.982;2023-08-31T15:33:47;7.70;;;1.90;;
47365;SDS011;33105;47.964;7.982;2023-08-31T15:36:49;5.30;;;2.08;;
47365;SDS011;33105;47.964;7.982;2023-08-31T15:40:26;4.70;;;1.80;;
47365;SDS011;33105;47.964;7.982;2023-08-31T15:43:34;9.32;;;2.03;;
47365;SDS011;33105;47.964;7.982;2023-08-31T15:46:52;9.25;;;1.98;;
47365;SDS011;33105;47.964;7.982;2023-08-31T15:50:07;4.75;;;1.70;;
47365;SDS011;33105;47.964;7.982;2023-08-31T15:53:10;4.72;;;1.85;;
47365;SDS011;33105;47.964;7.982;2023-08-31T15:56:35;4.72;;;2.33;;
47365;SDS011;33105;47.964;7.982;2023-08-31T16:00:46;5.75;;;1.70;;
47365;SDS011;33105;47.964;7.982;2023-08-31T16:04:26;5.72;;;2.25;;
47365;SDS011;33105;47.964;7.982;2023-08-31T16:08:16;5.15;;;2.00;;
47365;SDS011;33105;47.964;7.982;2023-08-31T16:16:24;5.35;;;2.05;;
47365;SDS011;33105;47.964;7.982;2023-08-31T16:20:22;3.75;;;2.10;;
47365;SDS011;33105;47.964;7.982;2023-08-31T16:25:26;8.00;;;2.13;;
47365;SDS011;33105;47.964;7.982;2023-08-31T16:28:27;6.80;;;1.80;;
47365;SDS011;33105;47.964;7.982;2023-08-31T16:31:40;6.88;;;1.80;;
47365;SDS011;33105;47.964;7.982;2023-08-31T16:35:03;9.57;;;2.30;;
47365;SDS011;33105;47.964;7.982;2023-08-31T16:39:09;6.70;;;2.42;;
47365;SDS011;33105;47.964;7.982;2023-08-31T16:45:53;6.30;;;2.10;;
47365;SDS011;33105;47.964;7.982;2023-08-31T16:49:22;7.75;;;1.90;;
47365;SDS011;33105;47.964;7.982;2023-08-31T16:52:36;4.30;;;1.50;;
47365;SDS011;33105;47.964;7.982;2023-08-31T16:57:10;8.18;;;2.35;;
47365;SDS011;33105;47.964;7.982;2023-08-31T16:59:56;4.97;;;2.70;;
47365;SDS011;33105;47.964;7.982;2023-08-31T17:03:03;6.65;;;2.60;;
47365;SDS011;33105;47.964;7.982;2023-08-31T17:06:08;4.80;;;2.50;;
47365;SDS011;33105;47.964;7.982;2023-08-31T17:09:28;6.03;;;1.90;;
47365;SDS011;33105;47.964;7.982;2023-08-31T17:12:32;6.97;;;2.00;;
47365;SDS011;33105;47.964;7.982;2023-08-31T17:15:42;5.97;;;2.10;;
47365;SDS011;33105;47.964;7.982;2023-08-31T17:18:45;7.40;;;2.00;;
47365;SDS011;33105;47.964;7.982;2023-08-31T17:29:43;7.03;;;2.08;;
47365;SDS011;33105;47.964;7.982;2023-08-31T17:32:55;5.78;;;2.15;;
47365;SDS011;33105;47.964;7.982;2023-08-31T17:36:24;7.85;;;2.22;;
47365;SDS011;33105;47.964;7.982;2023-08-31T17:46:47;4.25;;;1.80;;
47365;SDS011;33105;47.964;7.982;2023-08-31T17:50:33;7.47;;;2.20;;
47365;SDS011;33105;47.964;7.982;2023-08-31T17:58:04;7.18;;;1.92;;
47365;SDS011;33105;47.964;7.982;2023-08-31T18:01:51;5.55;;;1.88;;
47365;SDS011;33105;47.964;7.982;2023-08-31T18:13:28;6.28;;;2.20;;
47365;SDS011;33105;47.964;7.982;2023-08-31T18:17:25;7.68;;;1.88;;
47365;SDS011;33105;47.964;7.982;2023-08-31T18:20:27;5.38;;;1.90;;
47365;SDS011;33105;47.964;7.982;2023-08-31T18:28:50;5.28;;;2.00;;
47365;SDS011;33105;47.964;7.982;2023-08-31T18:31:52;4.90;;;2.05;;
47365;SDS011;33105;47.964;7.982;2023-08-31T18:39:49;7.05;;;2.20;;
47365;SDS011;33105;47.964;7.982;2023-08-31T18:43:36;9.00;;;2.03;;
47365;SDS011;33105;47.964;7.982;2023-08-31T18:47:30;6.38;;;2.30;;
47365;SDS011;33105;47.964;7.982;2023-08-31T18:50:44;6.28;;;2.10;;
47365;SDS011;33105;47.964;7.982;2023-08-31T18:54:35;5.78;;;2.30;;
47365;SDS011;33105;47.964;7.982;2023-08-31T18:58:40;6.00;;;2.40;;
47365;SDS011;33105;47.964;7.982;2023-08-31T19:06:13;4.40;;;2.10;;
47365;SDS011;33105;47.964;7.982;2023-08-31T19:14:48;5.28;;;2.35;;
47365;SDS011;33105;47.964;7.982;2023-08-31T19:23:35;4.97;;;2.00;;
47365;SDS011;33105;47.964;7.982;2023-08-31T19:26:17;4.53;;;2.30;;
47365;SDS011;33105;47.964;7.982;2023-08-31T19:47:59;7.10;;;2.20;;
47365;SDS011;33105;47.964;7.982;2023-08-31T19:51:56;6.22;;;2.83;;
47365;SDS011;33105;47.964;7.982;2023-08-31T19:55:48;5.13;;;2.10;;
47365;SDS011;33105;47.964;7.982;2023-08-31T19:59:56;4.85;;;2.50;;
47365;SDS011;33105;47.964;7.982;2023-08-31T20:07:34;11.43;;;2.92;;
47365;SDS011;33105;47.964;7.982;2023-08-31T20:11:44;9.77;;;2.65;;
47365;SDS011;33105;47.964;7.982;2023-08-31T20:15:26;4.68;;;2.20;;
47365;SDS011;33105;47.964;7.982;2023-08-31T20:18:28;7.93;;;2.38;;
47365;SDS011;33105;47.964;7.982;2023-08-31T20:22:19;6.07;;;2.20;;
47365;SDS011;33105;47.964;7.982;2023-08-31T20:34:19;7.20;;;2.50;;
47365;SDS011;33105;47.964;7.982;2023-08-31T20:38:08;15.15;;;2.75;;
47365;SDS011;33105;47.964;7.982;2023-08-31T20:41:44;7.55;;;2.60;;
47365;SDS011;33105;47.964;7.982;2023-08-31T20:44:53;5.95;;;2.38;;
47365;SDS011;33105;47.964;7.982;2023-08-31T20:48:09;6.93;;;2.60;;
47365;SDS011;33105;47.964;7.982;2023-08-31T20:51:49;6.68;;;2.80;;
47365;SDS011;33105;47.964;7.982;2023-08-31T20:55:01;8.63;;;2.90;;
47365;SDS011;33105;47.964;7.982;2023-08-31T20:58:50;8.38;;;2.50;;
47365;SDS011;33105;47.964;7.982;2023-08-31T21:19:16;3.55;;;2.33;;
47365;SDS011;33105;47.964;7.982;2023-08-31T21:23:39;5.70;;;2.33;;
47365;SDS011;33105;47.964;7.982;2023-08-31T22:03:16;5.82;;;2.50;;
47365;SDS011;33105;47.964;7.982;2023-08-31T22:35:47;6.47;;;2.20;;
47365;SDS011;33105;47.964;7.982;2023-08-31T22:40:01;2.85;;;1.98;;
47365;SDS011;33105;47.964;7.982;2023-08-31T22:58:46;5.55;;;1.80;;
47365;SDS011;33105;47.964;7.982;2023-08-31T23:02:06;3.90;;;1.88;;
47365;SDS011;33105;47.964;7.982;2023-08-31T23:10:05;3.03;;;1.70;;
47365;SDS011;33105;47.964;7.982;2023-08-31T23:13:29;4.88;;;1.95;;
47365;SDS011;33105;47.964;7.982;2023-08-31T23:16:54;4.00;;;2.10;;
47365;SDS011;33105;47.964;7.982;2023-08-31T23:25:33;4.85;;;1.90;;
47365;SDS011;33105;47.964;7.982;2023-08-31T23:30:07;6.82;;;1.85;;
47365;SDS011;33105;47.964;7.982;2023-08-31T23:33:59;3.80;;;1.50;;
47365;SDS011;33105;47.964;7.982;2023-08-31T23:41:14;4.28;;;1.63;;
47365;SDS011;33105;47.964;7.982;2023-08-31T23:45:17;5.80;;;1.52;;
47365;SDS011;33105;47.964;7.982;2023-08-31T23:49:18;9.25;;;1.80;;
47365;SDS011;33105;47.964;7.982;2023-08-31T23:52:26;8.05;;;1.83;;
